Time;durP1;ratioP1;P1;durP2;ratioP2;P2;SDS_P1;SDS_P2;PMS_P1;PMS_P2;Temp;Humidity;BMP_temperature;BMP_pressure;BME280_temperature;BME280_humidity;BME280_pressure;Samples;Min_cycle;Max_cycle;Signal;HPM_P1;HPM_P2
2021/10/02 00:44:40;;;;;;;28.02;15.63;;;;;;;6.31;72.28;100935.56;5074378;28;20048;-64
2021/10/02 00:47:08;;;;;;;23.50;14.20;;;;;;;6.35;72.16;100937.69;5073246;28;20055;-66
2021/10/02 00:49:36;;;;;;;32.70;14.23;;;;;;;6.40;71.79;100937.16;5074232;28;20052;-66
2021/10/02 00:52:02;;;;;;;23.70;13.52;;;;;;;6.43;71.69;100936.81;5073334;28;20074;-66
2021/10/02 00:54:28;;;;;;;25.50;14.18;;;;;;;6.49;71.80;100940.56;5074192;28;20529;-64
2021/10/02 00:56:56;;;;;;;24.73;13.57;;;;;;;6.54;71.29;100936.44;5074427;28;20079;-64
2021/10/02 00:59:22;;;;;;;25.20;15.90;;;;;;;6.56;71.57;100937.09;5074177;28;20036;-67
2021/10/02 01:01:53;;;;;;;29.77;14.18;;;;;;;6.60;71.46;100934.94;5074709;28;20090;-66
2021/10/02 01:04:28;;;;;;;24.88;14.73;;;;;;;6.56;70.94;100928.38;5072861;28;20139;-66
2021/10/02 01:07:02;;;;;;;27.13;14.02;;;;;;;6.57;71.34;100928.19;5072991;28;20048;-64
2021/10/02 01:09:33;;;;;;;22.88;13.77;;;;;;;6.47;71.98;100924.97;5073555;28;20056;-64
2021/10/02 01:12:18;;;;;;;26.40;14.85;;;;;;;6.49;71.96;100935.31;5074141;28;20131;-66
2021/10/02 01:14:59;;;;;;;22.77;14.35;;;;;;;6.50;71.69;100926.41;5074130;28;20420;-66
2021/10/02 01:17:54;;;;;;;25.35;15.27;;;;;;;6.43;71.82;100930.72;5072544;28;20563;-66
2021/10/02 01:20:48;;;;;;;24.95;14.93;;;;;;;6.40;71.93;100931.91;5066423;28;20151;-65
2021/10/02 01:23:32;;;;;;;25.17;14.77;;;;;;;6.45;71.63;100926.94;5073664;28;20102;-64
2021/10/02 01:26:06;;;;;;;24.42;14.77;;;;;;;6.52;71.17;100927.06;5073862;28;20393;-66
2021/10/02 01:28:35;;;;;;;26.35;15.10;;;;;;;6.49;71.40;100925.59;5072481;28;20426;-65
2021/10/02 01:47:14;;;;;;;28.60;17.10;;;;;;;6.36;71.92;100934.06;5072361;28;20040;-66
2021/10/02 01:49:44;;;;;;;24.52;15.25;;;;;;;6.36;72.00;100922.72;5072109;28;20494;-67
2021/10/02 01:52:12;;;;;;;26.08;16.17;;;;;;;6.40;71.67;100928.44;5055215;28;20036;-65
2021/10/02 01:54:41;;;;;;;28.90;16.33;;;;;;;6.30;71.53;100936.56;5072176;28;20139;-65
2021/10/02 01:57:07;;;;;;;28.02;16.35;;;;;;;6.31;71.71;100925.84;5071861;28;20091;-66
2021/10/02 01:59:33;;;;;;;30.00;15.73;;;;;;;6.23;72.02;100925.88;5072085;28;20048;-66
2021/10/02 02:02:00;;;;;;;28.20;15.25;;;;;;;6.22;72.36;100926.06;5055357;28;20097;-66
2021/10/02 02:04:27;;;;;;;25.88;15.35;;;;;;;6.21;72.15;100927.06;5071483;28;20490;-67
2021/10/02 02:06:56;;;;;;;28.90;15.63;;;;;;;6.24;71.77;100940.69;5071754;28;20060;-66
2021/10/02 02:09:25;;;;;;;26.05;15.30;;;;;;;6.28;71.88;100928.00;5072857;28;20414;-66
2021/10/02 02:11:52;;;;;;;29.38;16.45;;;;;;;6.26;72.20;100937.88;5071521;28;20048;-66
2021/10/02 02:14:18;;;;;;;26.33;15.93;;;;;;;6.26;71.80;100938.69;5071528;28;20533;-66
2021/10/02 02:16:46;;;;;;;28.90;16.15;;;;;;;6.29;71.45;100940.16;5072751;28;20482;-67
2021/10/02 02:19:13;;;;;;;24.38;14.32;;;;;;;6.31;71.60;100935.56;5054673;28;20044;-65
2021/10/02 02:21:39;;;;;;;24.33;13.35;;;;;;;6.35;71.05;100929.78;5072757;28;20043;-66
2021/10/02 02:24:05;;;;;;;27.98;15.73;;;;;;;6.38;71.04;100939.13;5072020;28;20040;-65
2021/10/02 02:26:31;;;;;;;30.52;15.05;;;;;;;6.37;70.71;100935.69;5071365;28;20037;-65
2021/10/02 02:28:58;;;;;;;23.52;14.05;;;;;;;6.40;70.77;100929.25;5072637;28;20041;-64
2021/10/02 02:31:24;;;;;;;23.48;13.40;;;;;;;6.41;70.57;100941.44;5071330;28;20093;-65
2021/10/02 02:33:49;;;;;;;24.17;14.65;;;;;;;6.40;70.82;100928.44;5071116;28;20056;-64
2021/10/02 02:36:15;;;;;;;28.60;14.27;;;;;;;6.41;70.82;100930.06;5072374;28;20528;-65
2021/10/02 02:38:41;;;;;;;27.92;15.35;;;;;;;6.47;70.62;100935.50;5071312;28;20055;-65
2021/10/02 02:41:07;;;;;;;26.80;15.55;;;;;;;6.49;70.73;100927.41;5072357;28;20514;-64
2021/10/02 02:43:34;;;;;;;33.92;14.98;;;;;;;6.42;71.58;100926.47;5072154;28;20048;-65
2021/10/02 02:46:22;;;;;;;27.92;15.32;;;;;;;6.36;71.08;100923.53;5072017;28;20040;-65
2021/10/02 02:49:04;;;;;;;29.70;15.05;;;;;;;6.38;71.19;100923.34;5072386;28;20413;-65
2021/10/02 02:51:57;;;;;;;31.27;15.52;;;;;;;6.37;71.10;100927.78;5070901;28;20040;-64
2021/10/02 02:54:28;;;;;;;33.28;15.52;;;;;;;6.37;70.99;100921.69;5070360;28;20406;-65
2021/10/02 02:56:56;;;;;;;24.95;13.43;;;;;;;6.39;71.06;100935.53;5072133;28;20048;-64
2021/10/02 02:59:30;;;;;;;28.02;14.85;;;;;;;6.42;71.00;100929.91;5071857;28;20051;-65
2021/10/02 03:01:58;;;;;;;27.50;13.30;;;;;;;6.43;70.67;100918.38;5070857;28;20047;-65
2021/10/02 03:04:29;;;;;;;27.23;13.52;;;;;;;6.45;70.55;100929.56;5070493;28;20044;-64
2021/10/02 03:06:55;;;;;;;28.40;14.07;;;;;;;6.48;70.65;100931.03;5070647;28;20049;-65
2021/10/02 03:09:22;;;;;;;23.67;13.95;;;;;;;6.48;70.78;100931.84;5070523;28;20060;-64
2021/10/02 03:11:50;;;;;;;23.17;13.18;;;;;;;6.49;70.71;100928.22;5070612;28;20110;-64
2021/10/02 03:14:18;;;;;;;26.70;14.10;;;;;;;6.49;70.70;100924.78;5071630;28;20040;-64
2021/10/02 03:16:49;;;;;;;29.45;14.15;;;;;;;6.51;70.32;100928.06;5054109;28;20356;-65
2021/10/02 03:19:15;;;;;;;26.63;14.30;;;;;;;6.55;70.29;100927.53;5071656;28;20040;-64
2021/10/02 03:21:41;;;;;;;25.35;13.90;;;;;;;6.58;70.02;100929.00;5070499;28;20051;-64
2021/10/02 03:24:07;;;;;;;25.25;13.93;;;;;;;6.56;69.76;100929.19;5071766;28;20044;-65
2021/10/02 03:26:33;;;;;;;25.73;14.40;;;;;;;6.51;69.99;100925.44;5070325;28;20405;-64
2021/10/02 03:29:00;;;;;;;24.92;14.10;;;;;;;6.45;69.83;100926.13;5071455;28;20596;-64
2021/10/02 03:31:26;;;;;;;27.25;15.00;;;;;;;6.40;70.27;100928.44;5070474;28;20052;-64
2021/10/02 03:33:53;;;;;;;30.08;14.02;;;;;;;6.33;70.33;100938.84;5070225;28;20052;-65
2021/10/02 03:36:19;;;;;;;25.45;13.40;;;;;;;6.31;70.70;100939.00;5052722;28;20671;-65
2021/10/02 03:38:46;;;;;;;22.55;13.38;;;;;;;6.34;71.04;100938.66;5070446;28;20048;-65
2021/10/02 03:41:12;;;;;;;26.80;15.43;;;;;;;6.38;70.70;100933.88;5070376;28;20041;-64
2021/10/02 03:43:38;;;;;;;27.55;14.15;;;;;;;6.34;70.83;100930.75;5071159;28;20051;-64
2021/10/02 03:46:04;;;;;;;26.10;14.07;;;;;;;6.41;71.38;100946.69;5071269;28;20047;-64
2021/10/02 03:48:31;;;;;;;26.98;14.93;;;;;;;6.39;71.70;100937.34;5071193;28;20048;-65
2021/10/02 03:50:59;;;;;;;26.23;13.50;;;;;;;6.46;70.79;100936.47;5071414;28;20064;-65
2021/10/02 03:53:27;;;;;;;28.13;13.57;;;;;;;6.50;70.53;100934.31;5071393;28;20071;-65
2021/10/02 03:55:54;;;;;;;27.13;14.13;;;;;;;6.55;70.20;100932.78;5071273;28;20040;-64
2021/10/02 03:58:20;;;;;;;30.55;14.35;;;;;;;6.57;69.93;100930.81;5071059;28;20044;-65
2021/10/02 04:00:46;;;;;;;23.20;13.15;;;;;;;6.60;70.10;100934.94;5069778;28;20063;-64
2021/10/02 04:03:12;;;;;;;27.52;14.35;;;;;;;6.59;70.25;100928.03;5071077;28;20135;-64
2021/10/02 04:05:38;;;;;;;27.95;14.45;;;;;;;6.55;70.90;100930.16;5071068;28;20040;-64
2021/10/02 04:08:04;;;;;;;30.17;14.32;;;;;;;6.54;70.90;100927.72;5069689;28;20041;-64
2021/10/02 04:10:30;;;;;;;26.83;13.98;;;;;;;6.58;70.89;100926.38;5071031;28;20094;-65
2021/10/02 04:12:56;;;;;;;31.17;15.25;;;;;;;6.64;71.11;100924.84;5071365;28;20040;-64
2021/10/02 04:15:21;;;;;;;30.48;14.90;;;;;;;6.66;70.24;100930.78;5070850;28;20052;-64
2021/10/02 04:17:47;;;;;;;25.15;13.80;;;;;;;6.70;70.22;100924.97;5069797;28;20044;-65
2021/10/02 04:20:13;;;;;;;28.63;14.25;;;;;;;6.74;70.19;100928.09;5070886;28;20421;-64
2021/10/02 04:22:39;;;;;;;27.70;14.10;;;;;;;6.74;70.18;100926.28;5071357;28;21869;-64
2021/10/02 04:25:05;;;;;;;28.08;14.85;;;;;;;6.69;70.18;100927.78;5070851;28;20084;-65
2021/10/02 04:27:31;;;;;;;28.80;13.77;;;;;;;6.73;70.54;100932.53;5071187;28;20036;-65
2021/10/02 04:29:57;;;;;;;28.88;15.07;;;;;;;6.71;70.82;100926.63;5070868;28;20040;-64
2021/10/02 04:32:23;;;;;;;35.95;15.52;;;;;;;6.76;70.48;100924.28;5071121;28;20048;-64
2021/10/02 04:34:49;;;;;;;22.70;14.40;;;;;;;6.85;70.70;100924.22;5070959;28;20048;-64
2021/10/02 04:37:15;;;;;;;26.75;13.40;;;;;;;6.90;70.23;100927.97;5070629;28;20094;-65
2021/10/02 04:39:41;;;;;;;26.70;14.15;;;;;;;6.86;69.66;100926.69;5070664;28;20130;-65
2021/10/02 04:42:06;;;;;;;26.85;14.27;;;;;;;6.88;70.13;100929.16;5070911;28;20544;-65
2021/10/02 04:44:32;;;;;;;28.05;14.15;;;;;;;6.89;69.86;100931.63;5070976;28;20090;-64
2021/10/02 04:46:58;;;;;;;27.33;14.05;;;;;;;6.93;69.92;100927.63;5070169;28;20094;-65
2021/10/02 04:49:24;;;;;;;26.92;14.38;;;;;;;6.98;69.87;100930.56;5073079;28;20438;-65
2021/10/02 04:51:50;;;;;;;27.05;15.00;;;;;;;7.02;69.57;100934.47;5074133;28;20036;-64
2021/10/02 04:54:17;;;;;;;29.27;14.25;;;;;;;7.04;70.01;100936.94;5074191;28;20071;-65
2021/10/02 04:56:43;;;;;;;29.10;14.48;;;;;;;7.11;70.20;100932.59;5056445;28;20090;-64
2021/10/02 04:59:09;;;;;;;27.33;14.50;;;;;;;7.19;69.47;100935.19;5074061;28;20041;-64
2021/10/02 05:01:34;;;;;;;25.50;14.38;;;;;;;7.25;69.22;100946.84;5074143;28;20048;-65
2021/10/02 05:04:01;;;;;;;25.88;14.40;;;;;;;7.28;69.37;100951.75;5073975;28;20051;-65
2021/10/02 05:06:28;;;;;;;26.73;14.88;;;;;;;7.24;69.57;100946.03;5073842;28;20063;-65
2021/10/02 05:08:54;;;;;;;28.65;14.45;;;;;;;7.27;69.55;100950.94;5072440;28;20137;-64
2021/10/02 05:11:20;;;;;;;26.67;14.73;;;;;;;7.31;69.25;100946.13;5072785;28;20051;-64
2021/10/02 05:13:45;;;;;;;26.50;14.18;;;;;;;7.35;69.15;100950.03;5072584;28;20128;-64
2021/10/02 05:16:12;;;;;;;24.90;13.77;;;;;;;7.37;68.47;100953.31;5073894;28;20044;-65
2021/10/02 05:18:37;;;;;;;27.00;13.98;;;;;;;7.40;68.60;100955.59;5073728;28;20044;-64
2021/10/02 05:21:03;;;;;;;26.85;13.68;;;;;;;7.42;68.51;100953.63;5073496;28;20106;-64
2021/10/02 05:23:29;;;;;;;27.45;13.90;;;;;;;7.47;68.45;100955.72;5073455;28;20046;-65
2021/10/02 05:25:55;;;;;;;26.50;13.77;;;;;;;7.49;68.08;100962.44;5073375;28;20028;-65
2021/10/02 05:28:22;;;;;;;24.92;13.45;;;;;;;7.50;68.50;100965.94;5073313;28;20044;-65
2021/10/02 05:30:48;;;;;;;25.77;15.20;;;;;;;7.56;68.00;100957.31;5073118;28;20070;-64
2021/10/02 05:33:14;;;;;;;33.75;17.58;;;;;;;7.67;67.39;100951.56;5072319;28;20120;-65
2021/10/02 05:35:40;;;;;;;24.52;13.52;;;;;;;7.78;67.11;100966.16;5071986;28;20048;-65
2021/10/02 05:38:05;;;;;;;22.45;12.98;;;;;;;7.83;67.14;100961.16;5073238;28;20049;-64
2021/10/02 05:40:32;;;;;;;22.45;12.93;;;;;;;7.91;66.67;100947.88;5073248;28;20051;-66
2021/10/02 05:42:59;;;;;;;25.60;13.60;;;;;;;7.98;66.85;100950.59;5073566;28;20452;-65
2021/10/02 05:45:25;;;;;;;22.73;14.55;;;;;;;7.96;66.22;100948.13;5073238;28;20605;-65
2021/10/02 05:47:51;;;;;;;36.03;14.30;;;;;;;8.04;65.99;100951.69;5073534;28;20131;-65
2021/10/02 05:50:17;;;;;;;25.48;14.38;;;;;;;8.06;65.99;100950.53;5071918;28;20139;-65
2021/10/02 05:52:43;;;;;;;23.70;14.05;;;;;;;8.08;65.21;100953.78;5073469;28;20059;-65
2021/10/02 05:55:10;;;;;;;25.80;13.90;;;;;;;8.09;65.74;100949.31;5071393;28;20093;-67
2021/10/02 05:57:36;;;;;;;24.73;14.68;;;;;;;8.11;64.93;100934.91;5071775;28;20485;-66
2021/10/02 06:00:07;;;;;;;25.10;13.73;;;;;;;8.17;65.74;100950.03;5070836;28;20117;-66
2021/10/02 06:02:37;;;;;;;25.80;14.63;;;;;;;8.12;66.16;100957.72;5073259;28;20041;-66
2021/10/02 06:05:04;;;;;;;24.40;13.23;;;;;;;8.07;65.89;100954.78;5072826;28;20086;-65
2021/10/02 06:07:30;;;;;;;31.85;13.65;;;;;;;8.18;66.23;100956.16;5071465;28;20056;-66
2021/10/02 06:09:56;;;;;;;27.10;15.00;;;;;;;8.33;65.17;100950.88;5072595;28;20583;-67
2021/10/02 06:12:21;;;;;;;25.52;13.80;;;;;;;8.47;64.98;100958.00;5073051;28;20477;-67
2021/10/02 06:14:47;;;;;;;26.55;14.90;;;;;;;8.57;64.34;100955.03;5072816;28;20048;-66
2021/10/02 06:17:13;;;;;;;25.88;14.38;;;;;;;8.67;64.47;100952.09;5072775;28;20123;-67
2021/10/02 06:19:38;;;;;;;24.27;13.85;;;;;;;8.73;64.40;100954.00;5072552;28;20040;-67
2021/10/02 06:22:04;;;;;;;28.40;14.88;;;;;;;8.72;64.41;100960.28;5072310;28;20072;-65
2021/10/02 06:24:30;;;;;;;23.50;14.18;;;;;;;8.80;64.18;100963.66;5071065;28;20113;-68
2021/10/02 06:26:56;;;;;;;22.63;14.15;;;;;;;8.87;64.00;100961.06;5072710;28;20048;-67
2021/10/02 06:29:23;;;;;;;21.35;13.43;;;;;;;8.93;63.40;100960.31;5071098;28;20044;-67
2021/10/02 06:31:49;;;;;;;26.13;13.68;;;;;;;9.01;63.49;100964.66;5063908;28;20079;-66
2021/10/02 06:34:15;;;;;;;25.67;13.88;;;;;;;9.09;63.18;100960.06;5068840;28;20501;-65
2021/10/02 06:36:42;;;;;;;27.77;14.57;;;;;;;9.12;62.56;100960.69;5068131;28;20540;-64
2021/10/02 06:39:08;;;;;;;25.05;15.07;;;;;;;8.97;62.82;100964.22;5068310;28;20383;-64
2021/10/02 06:41:34;;;;;;;23.48;14.05;;;;;;;9.02;63.35;100963.66;5068547;28;20071;-64
2021/10/02 06:44:00;;;;;;;34.00;16.30;;;;;;;9.10;63.44;100974.94;5067271;28;20047;-65
2021/10/02 06:46:25;;;;;;;28.25;15.00;;;;;;;9.01;63.58;100970.78;5067006;28;20062;-64
2021/10/02 06:48:51;;;;;;;27.35;15.02;;;;;;;9.14;63.80;100967.44;5069623;28;20101;-64
2021/10/02 06:51:17;;;;;;;28.30;15.40;;;;;;;9.20;63.15;100963.22;5050170;28;20379;-64
2021/10/02 06:53:42;;;;;;;23.45;15.32;;;;;;;9.35;61.91;100968.44;5067022;28;20048;-64
2021/10/02 06:56:08;;;;;;;25.30;14.32;;;;;;;9.41;62.16;100963.22;5067431;28;20062;-64
2021/10/02 06:58:34;;;;;;;24.67;13.98;;;;;;;9.54;62.06;100968.59;5066517;28;20067;-64
2021/10/02 07:01:00;;;;;;;28.45;16.23;;;;;;;9.60;61.66;100974.97;5067071;28;20512;-64
2021/10/02 07:03:25;;;;;;;29.70;16.17;;;;;;;9.68;60.68;100974.81;5067860;28;20138;-64
2021/10/02 07:05:51;;;;;;;24.95;14.57;;;;;;;9.77;60.59;100978.16;5068562;28;20040;-63
2021/10/02 07:08:17;;;;;;;27.35;15.10;;;;;;;9.86;60.33;100970.88;5067642;28;20551;-63
2021/10/02 07:10:43;;;;;;;26.25;14.07;;;;;;;9.86;60.09;100965.59;5068025;28;20066;-63
2021/10/02 07:13:08;;;;;;;24.05;14.82;;;;;;;9.97;60.06;100965.84;5067607;28;20086;-64
2021/10/02 07:15:34;;;;;;;26.98;14.70;;;;;;;9.88;60.01;100961.72;5064961;28;20090;-65
2021/10/02 07:18:00;;;;;;;28.85;14.73;;;;;;;9.90;59.85;100969.47;5065903;28;20044;-64
2021/10/02 07:20:27;;;;;;;27.40;15.60;;;;;;;9.93;59.51;100961.94;5056439;28;20036;-64
2021/10/02 07:22:52;;;;;;;24.55;14.60;;;;;;;10.00;59.73;100954.06;5065480;28;20119;-63
2021/10/02 07:25:22;;;;;;;26.63;14.38;;;;;;;9.99;59.30;100958.50;5068638;28;20131;-63
2021/10/02 07:27:48;;;;;;;29.60;13.93;;;;;;;10.07;59.05;100956.72;5069306;28;20039;-63
2021/10/02 07:30:14;;;;;;;29.50;14.65;;;;;;;10.07;59.13;100954.09;5066568;28;20044;-67
2021/10/02 07:32:40;;;;;;;26.73;15.55;;;;;;;10.03;59.43;100956.31;5067336;28;20383;-65
2021/10/02 07:35:08;;;;;;;26.73;15.05;;;;;;;10.10;59.30;100962.47;5068485;28;20040;-65
2021/10/02 07:37:34;;;;;;;27.85;15.13;;;;;;;10.30;58.93;100959.94;5066659;28;20040;-65
2021/10/02 07:40:00;;;;;;;26.88;14.27;;;;;;;10.36;58.68;100955.69;5065992;28;20114;-64
2021/10/02 07:42:26;;;;;;;28.98;14.27;;;;;;;10.52;58.18;100957.97;5054603;28;20127;-64
2021/10/02 07:45:05;;;;;;;31.58;15.20;;;;;;;10.28;59.10;100958.50;5061354;28;20056;-64
2021/10/02 07:47:32;;;;;;;31.85;15.00;;;;;;;10.54;58.69;100961.25;5068479;28;20573;-66
2021/10/02 07:50:00;;;;;;;26.45;15.05;;;;;;;10.78;57.61;100957.25;5068400;28;20494;-70
2021/10/02 07:52:27;;;;;;;28.13;14.52;;;;;;;11.00;57.03;100965.88;5067701;28;20040;-67
2021/10/02 07:54:53;;;;;;;23.55;13.98;;;;;;;11.16;56.43;100969.16;5065905;28;20051;-64
2021/10/02 07:57:19;;;;;;;25.30;13.90;;;;;;;11.21;56.43;100966.72;5048162;28;20068;-64
2021/10/02 07:59:48;;;;;;;27.10;13.68;;;;;;;11.30;55.33;100962.84;5068292;28;20114;-65
2021/10/02 08:02:17;;;;;;;25.02;13.65;;;;;;;11.29;55.49;100963.84;5064629;28;20142;-63
2021/10/02 08:04:43;;;;;;;30.25;14.07;;;;;;;11.12;55.38;100969.56;5043514;28;20106;-65
2021/10/02 08:07:09;;;;;;;26.95;14.55;;;;;;;10.95;56.26;100962.19;5046553;28;20559;-64
2021/10/02 08:09:35;;;;;;;26.65;15.60;;;;;;;10.97;56.19;100958.34;5048665;28;20533;-64
2021/10/02 08:12:02;;;;;;;27.48;14.98;;;;;;;11.17;55.84;100960.19;5048650;28;20045;-65
2021/10/02 08:14:27;;;;;;;26.73;14.95;;;;;;;11.23;55.54;100956.72;5047199;28;20052;-64
2021/10/02 08:16:54;;;;;;;28.45;14.85;;;;;;;11.33;55.31;100970.41;5047710;28;20052;-65
2021/10/02 08:19:20;;;;;;;25.52;15.38;;;;;;;11.28;56.06;100970.19;5047009;28;20061;-65
2021/10/02 08:21:47;;;;;;;25.02;15.02;;;;;;;11.18;56.09;100975.91;5046797;28;20041;-63
2021/10/02 08:24:14;;;;;;;28.48;15.73;;;;;;;11.24;56.45;100964.47;5051896;28;20064;-66
2021/10/02 08:26:41;;;;;;;30.05;15.35;;;;;;;11.27;55.74;100965.91;5052219;28;20102;-65
2021/10/02 08:29:07;;;;;;;30.20;16.38;;;;;;;11.49;55.27;100961.22;5050881;28;20474;-61
2021/10/02 08:31:33;;;;;;;30.20;15.52;;;;;;;11.63;54.91;100968.16;5053096;28;20120;-65
2021/10/02 08:34:00;;;;;;;37.70;17.45;;;;;;;11.58;55.13;100954.66;5053826;28;20045;-67
2021/10/02 08:36:25;;;;;;;25.10;16.55;;;;;;;11.45;55.56;100960.00;5052958;28;20129;-67
2021/10/02 08:38:51;;;;;;;36.42;16.10;;;;;;;11.47;55.09;100958.78;5054241;28;20044;-67
2021/10/02 08:41:20;;;;;;;23.67;15.57;;;;;;;11.44;55.57;100959.19;5052984;28;20452;-73
2021/10/02 08:43:50;;;;;;;28.10;16.30;;;;;;;11.50;55.38;100958.38;5019701;28;20533;-67
2021/10/02 08:46:16;;;;;;;30.23;16.05;;;;;;;11.55;56.09;100955.91;5054293;28;20536;-68
2021/10/02 08:48:47;;;;;;;25.60;16.13;;;;;;;11.50;55.58;100949.56;5052316;28;20045;-66
2021/10/02 08:51:13;;;;;;;36.22;17.35;;;;;;;11.53;55.57;100954.47;5052794;28;20041;-69
2021/10/02 08:53:39;;;;;;;26.67;16.08;;;;;;;11.57;55.57;100963.66;5019769;28;20418;-67
2021/10/02 08:56:05;;;;;;;25.85;16.02;;;;;;;11.63;55.37;100954.06;5054018;28;20559;-67
2021/10/02 08:58:31;;;;;;;28.35;15.95;;;;;;;11.75;55.12;100955.88;5053874;28;20506;-68
2021/10/02 09:01:00;;;;;;;25.58;16.38;;;;;;;11.82;54.25;100953.22;5053474;28;20052;-68
2021/10/02 09:03:26;;;;;;;27.17;16.90;;;;;;;11.77;54.62;100951.19;5052196;28;20399;-66
2021/10/02 09:05:52;;;;;;;26.92;16.73;;;;;;;11.86;54.68;100959.78;5053873;28;20536;-65
2021/10/02 09:08:18;;;;;;;37.15;16.52;;;;;;;11.99;54.28;100945.66;5053466;28;20144;-65
2021/10/02 09:10:44;;;;;;;29.67;16.60;;;;;;;12.08;54.08;100954.22;5052884;28;20083;-64
2021/10/02 09:13:10;;;;;;;37.50;18.52;;;;;;;12.20;54.11;100956.00;5053083;28;20048;-65
2021/10/02 09:15:36;;;;;;;28.30;17.55;;;;;;;12.29;53.59;100961.91;5052042;28;20049;-72
2021/10/02 09:18:02;;;;;;;26.83;16.65;;;;;;;12.35;53.59;100958.41;5035670;28;20041;-71
2021/10/02 09:20:29;;;;;;;28.00;16.20;;;;;;;12.35;53.27;100958.41;5019602;28;20072;-70
2021/10/02 09:23:00;;;;;;;32.60;18.67;;;;;;;12.30;53.42;100954.78;5052502;28;20084;-71
2021/10/02 09:25:28;;;;;;;27.13;16.13;;;;;;;12.22;53.46;100943.31;5019502;28;20048;-70
2021/10/02 09:28:14;;;;;;;31.42;16.73;;;;;;;12.30;53.26;100958.25;5052464;28;20044;-67
2021/10/02 09:30:42;;;;;;;28.08;16.38;;;;;;;12.25;53.79;100950.06;5053502;28;20045;-72
2021/10/02 09:33:20;;;;;;;28.65;17.60;;;;;;;12.29;53.44;100948.63;5051544;28;20103;-71
2021/10/02 09:35:47;;;;;;;28.45;17.10;;;;;;;12.35;53.76;100950.44;5051794;28;20049;-71
2021/10/02 09:38:15;;;;;;;30.58;16.85;;;;;;;12.38;53.12;100950.03;5035724;28;20049;-70
2021/10/02 09:40:50;;;;;;;27.35;16.70;;;;;;;12.44;53.07;100951.00;5052111;28;20450;-71
2021/10/02 09:43:16;;;;;;;28.27;17.70;;;;;;;12.52;52.84;100949.97;5052162;28;20053;-70
2021/10/02 09:45:42;;;;;;;24.30;16.70;;;;;;;12.50;52.97;100952.84;5054386;28;20127;-71
2021/10/02 09:48:15;;;;;;;34.45;17.73;;;;;;;12.51;52.80;100949.16;5061441;28;20036;-71
2021/10/02 09:50:45;;;;;;;32.75;17.98;;;;;;;12.52;52.70;100950.78;5070547;28;20072;-71
2021/10/02 09:53:16;;;;;;;25.25;16.10;;;;;;;12.56;52.47;100945.84;5055303;28;20040;-70
2021/10/02 09:55:47;;;;;;;28.13;17.60;;;;;;;12.56;53.14;100943.19;5071901;28;20071;-70
2021/10/02 09:58:28;;;;;;;33.83;17.50;;;;;;;12.51;52.67;100935.84;5072998;28;20501;-70
2021/10/02 10:00:56;;;;;;;31.77;18.13;;;;;;;12.59;52.95;100935.63;5072927;28;20526;-71
2021/10/02 10:03:22;;;;;;;31.23;18.00;;;;;;;12.64;52.75;100946.41;5073337;28;20139;-71
2021/10/02 10:05:52;;;;;;;29.58;16.20;;;;;;;12.67;52.82;100942.50;5072736;28;20037;-70
2021/10/02 10:08:28;;;;;;;;;;;;;;;12.71;52.27;100933.91;5055358;28;20076;-70
2021/10/02 10:11:07;;;;;;;28.90;18.75;;;;;;;12.82;51.73;100931.56;5055567;28;20364;-71
2021/10/02 10:13:32;;;;;;;31.90;17.38;;;;;;;12.80;51.46;100926.50;5054938;28;20045;-70
2021/10/02 10:15:58;;;;;;;32.90;17.38;;;;;;;12.82;51.52;100932.38;5072682;28;20504;-70
2021/10/02 10:18:26;;;;;;;30.30;16.92;;;;;;;12.89;51.76;100930.53;5072674;28;20044;-68
2021/10/02 10:20:58;;;;;;;29.05;16.63;;;;;;;12.85;51.87;100931.16;5071491;28;20090;-68
2021/10/02 10:23:31;;;;;;;33.42;16.95;;;;;;;12.83;51.31;100936.69;5062891;28;20459;-68
2021/10/02 10:26:04;;;;;;;36.85;17.60;;;;;;;12.86;51.32;100936.28;5061984;28;20128;-68
2021/10/02 10:28:33;;;;;;;28.48;16.80;;;;;;;12.90;51.84;100939.31;5052181;28;20064;-69
2021/10/02 10:31:20;;;;;;;31.00;16.80;;;;;;;12.89;50.91;100924.38;5051305;28;20483;-69
2021/10/02 10:33:49;;;;;;;26.02;16.63;;;;;;;12.89;51.37;100927.03;5001699;28;20053;-68
2021/10/02 10:36:17;;;;;;;33.45;17.02;;;;;;;12.97;50.92;100924.13;5050842;28;20422;-68
2021/10/02 10:38:43;;;;;;;30.77;17.45;;;;;;;12.91;51.40;100927.63;5052335;28;20045;-69
2021/10/02 10:41:11;;;;;;;24.60;16.77;;;;;;;12.97;51.72;100926.78;5052159;28;20060;-68
2021/10/02 10:43:37;;;;;;;34.15;16.73;;;;;;;12.99;51.23;100923.91;5052265;28;20044;-65
2021/10/02 10:46:08;;;;;;;28.17;16.40;;;;;;;13.01;51.10;100917.34;5051569;28;20148;-67
2021/10/02 10:48:35;;;;;;;28.58;16.30;;;;;;;12.93;50.99;100925.56;5050931;28;20044;-66
2021/10/02 10:51:07;;;;;;;27.95;16.70;;;;;;;12.92;51.35;100923.97;5052377;28;20072;-66
2021/10/02 10:53:35;;;;;;;23.95;15.52;;;;;;;13.00;51.05;100926.38;5050675;28;20045;-67
2021/10/02 10:56:01;;;;;;;34.55;16.45;;;;;;;12.99;50.54;100924.72;5034063;28;20135;-67
2021/10/02 10:58:29;;;;;;;31.63;17.80;;;;;;;12.89;51.44;100919.88;5051953;28;20040;-67
2021/10/02 11:00:56;;;;;;;36.17;19.67;;;;;;;12.89;51.18;100913.75;5033518;28;20047;-68
2021/10/02 11:03:58;;;;;;;29.23;17.40;;;;;;;12.88;51.21;100910.28;5050661;28;20040;-68
2021/10/02 11:06:50;;;;;;;25.35;16.27;;;;;;;12.92;50.73;100916.78;5051585;28;20526;-67
2021/10/02 11:09:16;;;;;;;26.90;15.30;;;;;;;12.83;50.66;100922.59;5050430;28;20045;-66
2021/10/02 11:11:54;;;;;;;25.92;15.68;;;;;;;12.86;50.36;100914.16;5051916;28;20049;-67
2021/10/02 11:14:46;;;;;;;21.77;15.05;;;;;;;12.85;51.14;100913.34;5052221;28;20095;-65
2021/10/02 11:17:13;;;;;;;26.90;15.73;;;;;;;12.92;50.52;100910.66;5051480;28;20052;-69
2021/10/02 11:19:41;;;;;;;23.10;15.13;;;;;;;12.91;50.39;100901.00;5050422;28;20041;-66
2021/10/02 11:22:58;;;;;;;23.50;13.60;;;;;;;12.84;49.66;100903.72;5050360;28;20051;-65
2021/10/02 11:25:24;;;;;;;22.58;14.35;;;;;;;12.92;49.47;100892.03;5051412;28;20051;-67
2021/10/02 11:27:51;;;;;;;21.95;14.15;;;;;;;12.88;49.76;100888.13;5051742;28;20158;-67
2021/10/02 11:30:20;;;;;;;23.58;13.88;;;;;;;12.89;49.89;100900.44;5051780;28;20083;-68
2021/10/02 11:32:46;;;;;;;26.98;15.48;;;;;;;12.65;50.21;100904.69;5051828;28;20520;-66
2021/10/02 11:35:15;;;;;;;24.10;14.40;;;;;;;12.56;50.76;100901.47;5051307;28;20051;-67
2021/10/02 11:37:53;;;;;;;23.48;14.10;;;;;;;12.32;51.63;100889.69;5051515;28;20052;-69
2021/10/02 11:40:40;;;;;;;27.67;16.08;;;;;;;12.23;52.41;100898.94;5033604;28;20595;-69
2021/10/02 11:43:15;;;;;;;24.75;15.73;;;;;;;12.27;52.64;100902.84;5051114;28;20047;-67
2021/10/02 11:46:02;;;;;;;39.22;16.80;;;;;;;12.33;52.15;100899.31;5051109;28;20041;-67
2021/10/02 11:48:37;;;;;;;27.33;15.90;;;;;;;12.21;52.24;100901.00;5051210;28;20138;-68
2021/10/02 11:51:20;;;;;;;25.27;17.20;;;;;;;12.12;52.52;100897.78;5051279;28;20234;-68
2021/10/02 11:53:56;;;;;;;28.83;16.88;;;;;;;11.94;52.99;100894.97;5050313;28;20045;-68
2021/10/02 11:56:25;;;;;;;40.42;17.15;;;;;;;11.86;53.14;100890.72;5049968;28;20046;-68
2021/10/02 11:58:53;;;;;;;26.80;16.70;;;;;;;11.80;53.96;100886.19;5055370;28;20098;-68
2021/10/02 12:01:21;;;;;;;28.48;17.33;;;;;;;11.78;54.08;100891.72;5055455;28;20083;-69
2021/10/02 12:03:48;;;;;;;30.77;18.00;;;;;;;11.75;54.05;100884.16;5053853;28;20152;-68
2021/10/02 12:06:17;;;;;;;33.00;17.77;;;;;;;11.65;54.22;100886.44;5055185;28;20090;-69
2021/10/02 12:08:43;;;;;;;32.57;18.30;;;;;;;11.54;54.54;100884.41;5054994;28;20410;-68
2021/10/02 12:11:12;;;;;;;29.45;18.17;;;;;;;11.47;54.52;100881.78;5037268;28;20049;-68
2021/10/02 12:13:45;;;;;;;35.83;18.55;;;;;;;11.39;55.10;100871.38;5055192;28;20131;-68
2021/10/02 12:16:32;;;;;;;35.17;18.20;;;;;;;11.30;55.20;100875.25;5054753;28;20074;-68
2021/10/02 12:19:10;;;;;;;26.85;18.17;;;;;;;11.33;55.15;100872.19;5054007;28;20045;-68
2021/10/02 12:21:44;;;;;;;32.60;18.45;;;;;;;11.32;55.29;100875.84;5054869;28;20068;-68